Charles Alfred — WYU9726 — position and weather

sailwx.info

Track history (hours):
 
Tides and Currents Weather Stations Pressure Air Temp Water Temp Dewpoint Dewpoint Depression Visibility Wind Speed Wind Dir Waves Ship Positions

Charles Alfred

Owner: CHARLES ALFRED INC, HACKBERRY, LA. More information available from US FCC via Universal Licensing System and Coast Guard Vessel Documentation Center.

Last reported at 2017-Sep-20 19:53 UTC. Time now 2017-Sep-21 12:23 UTC.
Position N 30°04' W 093°41'.

Length 16 m; draft 1 m.

Type: Towing. MMSI: 366973420.

Date/timePositionNaut miles runAvg speedWind from/ knotsBaromVisibWave heightAir tempDewpointWater temp
2017-Sep-20 19:53N 30°04' W 093°41'3 7.2
2017-Sep-20 19:29N 30°04' W 093°37'3 6.8
2017-Sep-20 19:00N 30°04' W 093°34'3 6.6
2017-Sep-20 18:30N 30°04' W 093°30'3 6.6
2017-Sep-20 18:00N 30°04' W 093°26'3 6.5
2017-Sep-20 17:30N 30°04' W 093°22'2 3.9
2017-Sep-20 17:00N 30°05' W 093°20'3 5.9
2017-Sep-20 16:30N 30°07' W 093°20'2 3.0
2017-Sep-20 16:00N 30°09' W 093°20'4 7.4
2017-Sep-20 15:30N 30°05' W 093°20'2 4.1
2017-Sep-20 15:00N 30°04' W 093°21'0 0.1
2017-Sep-20 14:00N 30°04' W 093°21'0 0.1
2017-Sep-20 13:30N 30°04' W 093°21'0 0.0
2017-Sep-20 13:00N 30°04' W 093°21'0 0.2
2017-Sep-20 12:30N 30°04' W 093°21'1 2.3
2017-Sep-20 11:59N 30°04' W 093°20'0 0.2
2017-Sep-20 11:30N 30°04' W 093°20'1 2.0
2017-Sep-20 11:00N 30°04' W 093°21'0 0.0
2017-Sep-20 10:30N 30°04' W 093°21'0 0.0
2017-Sep-20 10:00N 30°04' W 093°21'0 0.0
2017-Sep-20 09:30N 30°04' W 093°21'3 5.4
2017-Sep-20 09:00N 30°06' W 093°20'3 5.9
2017-Sep-20 08:30N 30°09' W 093°20'0 0.7
2017-Sep-20 08:00N 30°09' W 093°20'0 0.0
2017-Sep-20 07:30N 30°09' W 093°20'0 0.0
2017-Sep-20 07:00N 30°09' W 093°20'0 0.1
2017-Sep-20 06:30N 30°09' W 093°20'0 0.1
2017-Sep-20 06:00N 30°09' W 093°20'0 0.1
2017-Sep-20 05:30N 30°09' W 093°20'2 4.4
2017-Sep-20 05:00N 30°07' W 093°20'3 5.2
2017-Sep-20 04:30N 30°04' W 093°20'2 4.0
2017-Sep-20 04:00N 30°04' W 093°23'3 6.4
2017-Sep-20 03:30N 30°04' W 093°26'3 6.3
2017-Sep-20 03:00N 30°04' W 093°30'  
2017-Sep-17 02:49N 30°02' W 094°03'0 0.6
2017-Sep-17 02:30N 30°02' W 094°03'18 0.4
2017-Sep-15 03:34N 30°04' W 093°41'1 6.6
2017-Sep-15 03:29N 30°04' W 093°41'3 6.6
2017-Sep-15 03:00N 30°04' W 093°37'3 5.6
2017-Sep-15 02:30N 30°04' W 093°34'3 5.5
2017-Sep-15 02:00N 30°04' W 093°31'3 5.5
2017-Sep-15 01:30N 30°04' W 093°28'3 5.3
2017-Sep-15 01:00N 30°04' W 093°25'2 4.7
2017-Sep-15 00:30N 30°04' W 093°22'2 3.4
2017-Sep-15 00:00N 30°05' W 093°20'2 3.4
2017-Sep-14 23:30N 30°06' W 093°19'0 0.0
2017-Sep-14 23:00N 30°06' W 093°19'0 0.2
2017-Sep-14 22:30N 30°06' W 093°19'3 5.3
2017-Sep-14 22:00N 30°08' W 093°20'1 2.0
2017-Sep-14 21:30N 30°09' W 093°20'4 7.1
2017-Sep-14 21:00N 30°12' W 093°17'3 5.3
2017-Sep-14 20:30N 30°14' W 093°15'1 2.2
2017-Sep-14 20:00N 30°15' W 093°14'2 3.4
2017-Sep-14 19:30N 30°15' W 093°12'0 0.0
2017-Sep-14 19:00N 30°15' W 093°12'1 2.6
2017-Sep-14 18:30N 30°15' W 093°14'1 1.7
2017-Sep-14 17:56N 30°15' W 093°15'0 1.0
2017-Sep-14 17:30N 30°14' W 093°15'1 2.4
2017-Sep-14 17:00N 30°13' W 093°15'2 4.7
2017-Sep-14 16:30N 30°12' W 093°17'3 6.6
2017-Sep-14 16:00N 30°09' W 093°20'3 6.3
2017-Sep-14 15:30N 30°06' W 093°20'2 5.0
2017-Sep-14 15:00N 30°04' W 093°21'1 1.8
2017-Sep-14 14:30N 30°04' W 093°22'1 1.1
2017-Sep-14 14:00N 30°04' W 093°21'3 5.8
2017-Sep-14 13:30N 30°06' W 093°20'3 5.1
2017-Sep-14 12:56N 30°09' W 093°20'0 0.0
2017-Sep-14 10:51N 30°09' W 093°20'0 0.0
2017-Sep-14 10:31N 30°09' W 093°20'0 0.0
2017-Sep-14 10:01N 30°09' W 093°20'0 0.0
2017-Sep-14 09:29N 30°09' W 093°20'0 0.0
2017-Sep-14 09:00N 30°09' W 093°20'0 0.0
2017-Sep-14 08:30N 30°09' W 093°20'0 0.0
2017-Sep-14 08:00N 30°09' W 093°20'0 0.0
2017-Sep-14 07:30N 30°09' W 093°20'0 0.0
2017-Sep-14 07:00N 30°09' W 093°20'0 0.6
2017-Sep-14 06:30N 30°09' W 093°20'3 5.5
2017-Sep-14 06:00N 30°06' W 093°20'2 3.9
2017-Sep-14 05:30N 30°04' W 093°20'1 2.1
2017-Sep-14 05:00N 30°04' W 093°21'0 0.1
2017-Sep-14 04:30N 30°04' W 093°21'0 0.6
2017-Sep-14 04:00N 30°04' W 093°22'0 0.0
2017-Sep-14 03:31N 30°04' W 093°22'0 0.0
2017-Sep-14 03:00N 30°04' W 093°22'0 0.1
2017-Sep-14 02:30N 30°04' W 093°22'0 0.0
2017-Sep-14 02:00N 30°04' W 093°22'1 2.6
2017-Sep-14 01:31N 30°04' W 093°20'1 1.8
2017-Sep-14 01:00N 30°05' W 093°20'1 2.1
2017-Sep-14 00:30N 30°04' W 093°21'1 2.3
2017-Sep-14 00:00N 30°05' W 093°20'0 0.0
2017-Sep-13 23:30N 30°05' W 093°20'0 0.1
2017-Sep-13 23:01N 30°05' W 093°20'2 3.7
2017-Sep-13 22:30N 30°04' W 093°21'2 3.6
2017-Sep-13 22:00N 30°05' W 093°20'0 0.0
2017-Sep-13 21:31N 30°05' W 093°20'2 4.2
2017-Sep-13 21:00N 30°04' W 093°22'0 0.4
2017-Sep-13 20:31N 30°04' W 093°21'0 0.5
2017-Sep-13 20:00N 30°04' W 093°22'0 0.1
2017-Sep-13 19:31N 30°04' W 093°22'0 0.5
2017-Sep-13 19:01N 30°04' W 093°22'0 0.0
2017-Sep-13 18:30N 30°04' W 093°22'0 0.5
2017-Sep-13 18:00N 30°04' W 093°22'0 0.8
2017-Sep-13 17:31N 30°04' W 093°21'0 0.5
2017-Sep-13 17:01N 30°04' W 093°22'2 4.1
2017-Sep-13 16:30N 30°05' W 093°20'2 3.6
2017-Sep-13 16:00N 30°04' W 093°21'0 0.5
2017-Sep-13 15:30N 30°04' W 093°21'0 0.7
2017-Sep-13 15:00N 30°04' W 093°21'0 0.2
2017-Sep-13 14:30N 30°04' W 093°21'0 0.0
2017-Sep-13 14:01N 30°04' W 093°21'1 1.3
2017-Sep-13 13:30N 30°04' W 093°21'0 0.4
2017-Sep-13 13:00N 30°04' W 093°21'0 0.0
2017-Sep-13 12:30N 30°04' W 093°21'1 1.9
2017-Sep-13 12:00N 30°05' W 093°20'0 0.0
2017-Sep-13 11:31N 30°05' W 093°20'0 0.0
2017-Sep-13 11:00N 30°05' W 093°20'0 0.0
2017-Sep-13 10:30N 30°05' W 093°20'0 0.6
2017-Sep-13 10:00N 30°05' W 093°20'2 3.3
2017-Sep-13 09:30N 30°04' W 093°21'0 0.0
2017-Sep-13 09:00N 30°04' W 093°21'0 0.0
2017-Sep-13 08:30N 30°04' W 093°21'0 0.0
2017-Sep-13 08:00N 30°04' W 093°21'0 0.0
2017-Sep-13 07:30N 30°04' W 093°21'0 0.0
2017-Sep-13 07:00N 30°04' W 093°21'0 0.0
2017-Sep-13 06:31N 30°04' W 093°21'0 0.0
2017-Sep-13 06:00N 30°04' W 093°21'0 0.0
2017-Sep-13 05:30N 30°04' W 093°21'0 0.0
2017-Sep-13 05:01N 30°04' W 093°21'0 0.0
2017-Sep-13 04:31N 30°04' W 093°21'0 0.1
2017-Sep-13 04:00N 30°04' W 093°21'0 0.3
2017-Sep-13 03:30N 30°04' W 093°21'2 3.4
2017-Sep-13 03:00N 30°05' W 093°20'1 2.4
2017-Sep-13 02:30N 30°04' W 093°21'0 0.0
2017-Sep-13 02:00N 30°04' W 093°21'0 0.0
2017-Sep-13 01:31N 30°04' W 093°21'0 0.0
2017-Sep-13 01:01N 30°04' W 093°21'0 0.0
2017-Sep-13 00:30N 30°04' W 093°21'0 0.0
2017-Sep-13 00:00N 30°04' W 093°21'0 0.1
2017-Sep-12 23:31N 30°04' W 093°21'0 0.0
2017-Sep-12 23:00N 30°04' W 093°21'0 0.0
2017-Sep-12 22:30N 30°04' W 093°21'0 0.0
2017-Sep-12 22:01N 30°04' W 093°21'0 0.6
2017-Sep-12 21:31N 30°04' W 093°21'0 0.6
2017-Sep-12 21:00N 30°04' W 093°21'1 1.9
2017-Sep-12 20:30N 30°04' W 093°22'0 0.6
2017-Sep-12 20:01N 30°04' W 093°21'2 4.0
2017-Sep-12 19:30N 30°05' W 093°20'4 7.9
2017-Sep-12 19:01N 30°09' W 093°20'4 7.8
2017-Sep-12 18:30N 30°12' W 093°17'2 5.0
2017-Sep-12 18:01N 30°14' W 093°15'1 1.0
2017-Sep-12 17:31N 30°13' W 093°14'3 6.3
2017-Sep-12 17:00N 30°12' W 093°18'3 5.9
2017-Sep-12 16:31N 30°09' W 093°20'3 5.9
2017-Sep-12 16:01N 30°06' W 093°20'1 1.6
2017-Sep-12 15:31N 30°06' W 093°19'0 0.1
2017-Sep-12 15:00N 30°06' W 093°19'0 0.0
2017-Sep-12 14:31N 30°06' W 093°19'0 0.0
2017-Sep-12 14:00N 30°06' W 093°19'8 1.0
2017-Sep-12 06:19N 30°13' W 093°17'1 3.3
2017-Sep-12 06:00N 30°12' W 093°17'4 7.0
2017-Sep-12 05:29N 30°10' W 093°19'1 1.1
2017-Sep-12 05:01N 30°09' W 093°20'0 0.0
2017-Sep-12 04:30N 30°09' W 093°20'0 0.0
2017-Sep-12 04:00N 30°09' W 093°20'0 0.0
2017-Sep-12 03:30N 30°09' W 093°20'0 0.0
2017-Sep-12 03:01N 30°09' W 093°20'0 0.0
2017-Sep-12 02:30N 30°09' W 093°20'1 2.8
2017-Sep-12 02:00N 30°08' W 093°20'3 6.0
2017-Sep-12 01:31N 30°05' W 093°20'0 0.4
2017-Sep-12 01:01N 30°05' W 093°20'2 3.3
2017-Sep-12 00:31N 30°04' W 093°21'0 0.3
2017-Sep-12 00:00N 30°04' W 093°22'2 3.5
2017-Sep-11 23:30N 30°05' W 093°20'0 0.8
2017-Sep-11 23:00N 30°05' W 093°20'0 0.0
2017-Sep-11 22:30N 30°05' W 093°20'0 0.9
2017-Sep-11 22:00N 30°05' W 093°20'2 3.1
2017-Sep-11 21:30N 30°04' W 093°21'1 1.1
2017-Sep-11 21:00N 30°04' W 093°21'0 0.0
2017-Sep-11 20:31N 30°04' W 093°21'0 0.8
2017-Sep-11 20:00N 30°04' W 093°21'1 2.1
2017-Sep-11 19:31N 30°05' W 093°20'2 3.6
2017-Sep-11 19:00N 30°04' W 093°21'0 0.0
2017-Sep-11 18:30N 30°04' W 093°21'0 0.0
2017-Sep-11 18:00N 30°04' W 093°21'0 0.0
2017-Sep-11 17:30N 30°04' W 093°21'0 0.2
2017-Sep-11 17:00N 30°04' W 093°21'0 0.0
2017-Sep-11 16:31N 30°04' W 093°21'0 0.0
2017-Sep-11 16:01N 30°04' W 093°21'0 0.0
2017-Sep-11 15:30N 30°04' W 093°21'0 0.0
2017-Sep-11 14:52N 30°04' W 093°21'0 0.7
2017-Sep-11 14:31N 30°04' W 093°22'3 6.1
2017-Sep-11 14:00N 30°04' W 093°25'4 6.9
2017-Sep-11 13:28N 30°04' W 093°29'  
Track history (hours):
 
Tides and Currents Weather Stations Pressure Air Temp Water Temp Dewpoint Dewpoint Depression Visibility Wind Speed Wind Dir Waves Ship Positions

Charles Alfred

Owner: CHARLES ALFRED INC, HACKBERRY, LA. More information available from US FCC via Universal Licensing System and Coast Guard Vessel Documentation Center.

Last reported at 2017-Sep-20 19:53 UTC. Time now 2017-Sep-21 12:23 UTC.
Position N 30°04' W 093°41'.

Length 16 m; draft 1 m.

Type: Towing. MMSI: 366973420.

Date/timePositionNaut miles runAvg speedWind from/ knotsBaromVisibWave heightAir tempDewpointWater temp
2017-Sep-20 19:53N 30°04' W 093°41'3 7.2
2017-Sep-20 19:29N 30°04' W 093°37'3 6.8
2017-Sep-20 19:00N 30°04' W 093°34'3 6.6
2017-Sep-20 18:30N 30°04' W 093°30'3 6.6
2017-Sep-20 18:00N 30°04' W 093°26'3 6.5
2017-Sep-20 17:30N 30°04' W 093°22'2 3.9
2017-Sep-20 17:00N 30°05' W 093°20'3 5.9
2017-Sep-20 16:30N 30°07' W 093°20'2 3.0
2017-Sep-20 16:00N 30°09' W 093°20'4 7.4
2017-Sep-20 15:30N 30°05' W 093°20'2 4.1
2017-Sep-20 15:00N 30°04' W 093°21'0 0.1
2017-Sep-20 14:00N 30°04' W 093°21'0 0.1
2017-Sep-20 13:30N 30°04' W 093°21'0 0.0
2017-Sep-20 13:00N 30°04' W 093°21'0 0.2
2017-Sep-20 12:30N 30°04' W 093°21'1 2.3
2017-Sep-20 11:59N 30°04' W 093°20'0 0.2
2017-Sep-20 11:30N 30°04' W 093°20'1 2.0
2017-Sep-20 11:00N 30°04' W 093°21'0 0.0
2017-Sep-20 10:30N 30°04' W 093°21'0 0.0
2017-Sep-20 10:00N 30°04' W 093°21'0 0.0
2017-Sep-20 09:30N 30°04' W 093°21'3 5.4
2017-Sep-20 09:00N 30°06' W 093°20'3 5.9
2017-Sep-20 08:30N 30°09' W 093°20'0 0.7
2017-Sep-20 08:00N 30°09' W 093°20'0 0.0
2017-Sep-20 07:30N 30°09' W 093°20'0 0.0
2017-Sep-20 07:00N 30°09' W 093°20'0 0.1
2017-Sep-20 06:30N 30°09' W 093°20'0 0.1
2017-Sep-20 06:00N 30°09' W 093°20'0 0.1
2017-Sep-20 05:30N 30°09' W 093°20'2 4.4
2017-Sep-20 05:00N 30°07' W 093°20'3 5.2
2017-Sep-20 04:30N 30°04' W 093°20'2 4.0
2017-Sep-20 04:00N 30°04' W 093°23'3 6.4
2017-Sep-20 03:30N 30°04' W 093°26'3 6.3
2017-Sep-20 03:00N 30°04' W 093°30'  
2017-Sep-17 02:49N 30°02' W 094°03'0 0.6
2017-Sep-17 02:30N 30°02' W 094°03'18 0.4
2017-Sep-15 03:34N 30°04' W 093°41'1 6.6
2017-Sep-15 03:29N 30°04' W 093°41'3 6.6
2017-Sep-15 03:00N 30°04' W 093°37'3 5.6
2017-Sep-15 02:30N 30°04' W 093°34'3 5.5
2017-Sep-15 02:00N 30°04' W 093°31'3 5.5
2017-Sep-15 01:30N 30°04' W 093°28'3 5.3
2017-Sep-15 01:00N 30°04' W 093°25'2 4.7
2017-Sep-15 00:30N 30°04' W 093°22'2 3.4
2017-Sep-15 00:00N 30°05' W 093°20'2 3.4
2017-Sep-14 23:30N 30°06' W 093°19'0 0.0
2017-Sep-14 23:00N 30°06' W 093°19'0 0.2
2017-Sep-14 22:30N 30°06' W 093°19'3 5.3
2017-Sep-14 22:00N 30°08' W 093°20'1 2.0
2017-Sep-14 21:30N 30°09' W 093°20'4 7.1
2017-Sep-14 21:00N 30°12' W 093°17'3 5.3
2017-Sep-14 20:30N 30°14' W 093°15'1 2.2
2017-Sep-14 20:00N 30°15' W 093°14'2 3.4
2017-Sep-14 19:30N 30°15' W 093°12'0 0.0
2017-Sep-14 19:00N 30°15' W 093°12'1 2.6
2017-Sep-14 18:30N 30°15' W 093°14'1 1.7
2017-Sep-14 17:56N 30°15' W 093°15'0 1.0
2017-Sep-14 17:30N 30°14' W 093°15'1 2.4
2017-Sep-14 17:00N 30°13' W 093°15'2 4.7
2017-Sep-14 16:30N 30°12' W 093°17'3 6.6
2017-Sep-14 16:00N 30°09' W 093°20'3 6.3
2017-Sep-14 15:30N 30°06' W 093°20'2 5.0
2017-Sep-14 15:00N 30°04' W 093°21'1 1.8
2017-Sep-14 14:30N 30°04' W 093°22'1 1.1
2017-Sep-14 14:00N 30°04' W 093°21'3 5.8
2017-Sep-14 13:30N 30°06' W 093°20'3 5.1
2017-Sep-14 12:56N 30°09' W 093°20'0 0.0
2017-Sep-14 10:51N 30°09' W 093°20'0 0.0
2017-Sep-14 10:31N 30°09' W 093°20'0 0.0
2017-Sep-14 10:01N 30°09' W 093°20'0 0.0
2017-Sep-14 09:29N 30°09' W 093°20'0 0.0
2017-Sep-14 09:00N 30°09' W 093°20'0 0.0
2017-Sep-14 08:30N 30°09' W 093°20'0 0.0
2017-Sep-14 08:00N 30°09' W 093°20'0 0.0
2017-Sep-14 07:30N 30°09' W 093°20'0 0.0
2017-Sep-14 07:00N 30°09' W 093°20'0 0.6
2017-Sep-14 06:30N 30°09' W 093°20'3 5.5
2017-Sep-14 06:00N 30°06' W 093°20'2 3.9
2017-Sep-14 05:30N 30°04' W 093°20'1 2.1
2017-Sep-14 05:00N 30°04' W 093°21'0 0.1
2017-Sep-14 04:30N 30°04' W 093°21'0 0.6
2017-Sep-14 04:00N 30°04' W 093°22'0 0.0
2017-Sep-14 03:31N 30°04' W 093°22'0 0.0
2017-Sep-14 03:00N 30°04' W 093°22'0 0.1
2017-Sep-14 02:30N 30°04' W 093°22'0 0.0
2017-Sep-14 02:00N 30°04' W 093°22'1 2.6
2017-Sep-14 01:31N 30°04' W 093°20'1 1.8
2017-Sep-14 01:00N 30°05' W 093°20'1 2.1
2017-Sep-14 00:30N 30°04' W 093°21'1 2.3
2017-Sep-14 00:00N 30°05' W 093°20'0 0.0
2017-Sep-13 23:30N 30°05' W 093°20'0 0.1
2017-Sep-13 23:01N 30°05' W 093°20'2 3.7
2017-Sep-13 22:30N 30°04' W 093°21'2 3.6
2017-Sep-13 22:00N 30°05' W 093°20'0 0.0
2017-Sep-13 21:31N 30°05' W 093°20'2 4.2
2017-Sep-13 21:00N 30°04' W 093°22'0 0.4
2017-Sep-13 20:31N 30°04' W 093°21'0 0.5
2017-Sep-13 20:00N 30°04' W 093°22'0 0.1
2017-Sep-13 19:31N 30°04' W 093°22'0 0.5
2017-Sep-13 19:01N 30°04' W 093°22'0 0.0
2017-Sep-13 18:30N 30°04' W 093°22'0 0.5
2017-Sep-13 18:00N 30°04' W 093°22'0 0.8
2017-Sep-13 17:31N 30°04' W 093°21'0 0.5
2017-Sep-13 17:01N 30°04' W 093°22'2 4.1
2017-Sep-13 16:30N 30°05' W 093°20'2 3.6
2017-Sep-13 16:00N 30°04' W 093°21'0 0.5
2017-Sep-13 15:30N 30°04' W 093°21'0 0.7
2017-Sep-13 15:00N 30°04' W 093°21'0 0.2
2017-Sep-13 14:30N 30°04' W 093°21'0 0.0
2017-Sep-13 14:01N 30°04' W 093°21'1 1.3
2017-Sep-13 13:30N 30°04' W 093°21'0 0.4
2017-Sep-13 13:00N 30°04' W 093°21'0 0.0
2017-Sep-13 12:30N 30°04' W 093°21'1 1.9
2017-Sep-13 12:00N 30°05' W 093°20'0 0.0
2017-Sep-13 11:31N 30°05' W 093°20'0 0.0
2017-Sep-13 11:00N 30°05' W 093°20'0 0.0
2017-Sep-13 10:30N 30°05' W 093°20'0 0.6
2017-Sep-13 10:00N 30°05' W 093°20'2 3.3
2017-Sep-13 09:30N 30°04' W 093°21'0 0.0
2017-Sep-13 09:00N 30°04' W 093°21'0 0.0
2017-Sep-13 08:30N 30°04' W 093°21'0 0.0
2017-Sep-13 08:00N 30°04' W 093°21'0 0.0
2017-Sep-13 07:30N 30°04' W 093°21'0 0.0
2017-Sep-13 07:00N 30°04' W 093°21'0 0.0
2017-Sep-13 06:31N 30°04' W 093°21'0 0.0
2017-Sep-13 06:00N 30°04' W 093°21'0 0.0
2017-Sep-13 05:30N 30°04' W 093°21'0 0.0
2017-Sep-13 05:01N 30°04' W 093°21'0 0.0
2017-Sep-13 04:31N 30°04' W 093°21'0 0.1
2017-Sep-13 04:00N 30°04' W 093°21'0 0.3
2017-Sep-13 03:30N 30°04' W 093°21'2 3.4
2017-Sep-13 03:00N 30°05' W 093°20'1 2.4
2017-Sep-13 02:30N 30°04' W 093°21'0 0.0
2017-Sep-13 02:00N 30°04' W 093°21'0 0.0
2017-Sep-13 01:31N 30°04' W 093°21'0 0.0
2017-Sep-13 01:01N 30°04' W 093°21'0 0.0
2017-Sep-13 00:30N 30°04' W 093°21'0 0.0
2017-Sep-13 00:00N 30°04' W 093°21'0 0.1
2017-Sep-12 23:31N 30°04' W 093°21'0 0.0
2017-Sep-12 23:00N 30°04' W 093°21'0 0.0
2017-Sep-12 22:30N 30°04' W 093°21'0 0.0
2017-Sep-12 22:01N 30°04' W 093°21'0 0.6
2017-Sep-12 21:31N 30°04' W 093°21'0 0.6
2017-Sep-12 21:00N 30°04' W 093°21'1 1.9
2017-Sep-12 20:30N 30°04' W 093°22'0 0.6
2017-Sep-12 20:01N 30°04' W 093°21'2 4.0
2017-Sep-12 19:30N 30°05' W 093°20'4 7.9
2017-Sep-12 19:01N 30°09' W 093°20'4 7.8
2017-Sep-12 18:30N 30°12' W 093°17'2 5.0
2017-Sep-12 18:01N 30°14' W 093°15'1 1.0
2017-Sep-12 17:31N 30°13' W 093°14'3 6.3
2017-Sep-12 17:00N 30°12' W 093°18'3 5.9
2017-Sep-12 16:31N 30°09' W 093°20'3 5.9
2017-Sep-12 16:01N 30°06' W 093°20'1 1.6
2017-Sep-12 15:31N 30°06' W 093°19'0 0.1
2017-Sep-12 15:00N 30°06' W 093°19'0 0.0
2017-Sep-12 14:31N 30°06' W 093°19'0 0.0
2017-Sep-12 14:00N 30°06' W 093°19'8 1.0
2017-Sep-12 06:19N 30°13' W 093°17'1 3.3
2017-Sep-12 06:00N 30°12' W 093°17'4 7.0
2017-Sep-12 05:29N 30°10' W 093°19'1 1.1
2017-Sep-12 05:01N 30°09' W 093°20'0 0.0
2017-Sep-12 04:30N 30°09' W 093°20'0 0.0
2017-Sep-12 04:00N 30°09' W 093°20'0 0.0
2017-Sep-12 03:30N 30°09' W 093°20'0 0.0
2017-Sep-12 03:01N 30°09' W 093°20'0 0.0
2017-Sep-12 02:30N 30°09' W 093°20'1 2.8
2017-Sep-12 02:00N 30°08' W 093°20'3 6.0
2017-Sep-12 01:31N 30°05' W 093°20'0 0.4
2017-Sep-12 01:01N 30°05' W 093°20'2 3.3
2017-Sep-12 00:31N 30°04' W 093°21'0 0.3
2017-Sep-12 00:00N 30°04' W 093°22'2 3.5
2017-Sep-11 23:30N 30°05' W 093°20'0 0.8
2017-Sep-11 23:00N 30°05' W 093°20'0 0.0
2017-Sep-11 22:30N 30°05' W 093°20'0 0.9
2017-Sep-11 22:00N 30°05' W 093°20'2 3.1
2017-Sep-11 21:30N 30°04' W 093°21'1 1.1
2017-Sep-11 21:00N 30°04' W 093°21'0 0.0
2017-Sep-11 20:31N 30°04' W 093°21'0 0.8
2017-Sep-11 20:00N 30°04' W 093°21'1 2.1
2017-Sep-11 19:31N 30°05' W 093°20'2 3.6
2017-Sep-11 19:00N 30°04' W 093°21'0 0.0
2017-Sep-11 18:30N 30°04' W 093°21'0 0.0
2017-Sep-11 18:00N 30°04' W 093°21'0 0.0
2017-Sep-11 17:30N 30°04' W 093°21'0 0.2
2017-Sep-11 17:00N 30°04' W 093°21'0 0.0
2017-Sep-11 16:31N 30°04' W 093°21'0 0.0
2017-Sep-11 16:01N 30°04' W 093°21'0 0.0
2017-Sep-11 15:30N 30°04' W 093°21'0 0.0
2017-Sep-11 14:52N 30°04' W 093°21'0 0.7
2017-Sep-11 14:31N 30°04' W 093°22'3 6.1
2017-Sep-11 14:00N 30°04' W 093°25'4 6.9
2017-Sep-11 13:28N 30°04' W 093°29'  

Dump ship's entire track history